Time;durP1;ratioP1;P1;durP2;ratioP2;P2;SDS_P1;SDS_P2;PMS_P1;PMS_P2;Temp;Humidity;BMP_temperature;BMP_pressure;BME280_temperature;BME280_humidity;BME280_pressure;Samples;Min_cycle;Max_cycle;Signal;HPM_P1;HPM_P2
2021/12/27 00:01:47;;;;;;;4.75;3.00;;;;;;;-11.23;69.13;99742.66;5021652;28;20060;-77
2021/12/27 00:04:20;;;;;;;4.03;2.28;;;;;;;-11.11;69.25;99748.44;5022148;28;20046;-77
2021/12/27 00:06:50;;;;;;;4.55;2.35;;;;;;;-11.08;68.75;99753.72;5021933;28;20060;-77
2021/12/27 00:09:21;;;;;;;5.78;3.30;;;;;;;-11.09;68.27;99751.94;5021937;28;20080;-77
2021/12/27 00:11:52;;;;;;;4.32;2.90;;;;;;;-11.07;68.06;99752.91;5021654;28;20053;-77
2021/12/27 00:14:23;;;;;;;13.07;3.78;;;;;;;-11.15;67.99;99746.53;5021784;28;20109;-77
2021/12/27 00:16:54;;;;;;;7.60;3.90;;;;;;;-11.15;68.13;99741.50;5021681;28;20081;-77
2021/12/27 00:19:26;;;;;;;6.68;3.53;;;;;;;-11.04;67.91;99750.56;5021624;28;20060;-77
2021/12/27 00:21:57;;;;;;;19.95;5.20;;;;;;;-11.06;67.66;99742.03;5021760;28;20053;-77
2021/12/27 00:24:31;;;;;;;14.55;5.13;;;;;;;-11.07;67.48;99757.97;5021677;28;20076;-77
2021/12/27 00:27:02;;;;;;;23.27;7.32;;;;;;;-11.10;67.75;99745.16;5021457;28;20054;-77
2021/12/27 00:29:33;;;;;;;23.35;5.85;;;;;;;-11.17;67.56;99743.06;5021548;28;20058;-77
2021/12/27 00:32:04;;;;;;;21.98;5.75;;;;;;;-11.23;67.74;99752.75;5021359;28;20241;-77
2021/12/27 00:34:37;;;;;;;9.68;3.35;;;;;;;-11.18;67.99;99753.91;5021573;28;20054;-77
2021/12/27 00:37:09;;;;;;;2.45;2.15;;;;;;;-11.32;67.85;99737.94;5021370;28;20085;-77
2021/12/27 00:39:40;;;;;;;2.85;2.20;;;;;;;-11.23;68.04;99762.84;5021310;28;20081;-77
2021/12/27 00:42:11;;;;;;;7.38;2.47;;;;;;;-11.25;67.99;99744.25;5021572;28;20046;-77
2021/12/27 00:44:42;;;;;;;8.68;3.17;;;;;;;-11.11;68.07;99761.06;5020790;28;20104;-77
2021/12/27 00:47:12;;;;;;;9.15;5.78;;;;;;;-11.14;67.91;99758.38;5021545;28;20116;-78
2021/12/27 00:49:45;;;;;;;5.88;3.05;;;;;;;-11.08;67.83;99763.81;5021444;28;20061;-77
2021/12/27 00:52:16;;;;;;;5.88;2.80;;;;;;;-11.11;67.90;99743.41;5021362;28;20114;-78
2021/12/27 00:54:46;;;;;;;2.97;2.70;;;;;;;-11.02;67.67;99754.06;5021334;28;20129;-78
2021/12/27 00:57:17;;;;;;;3.55;2.17;;;;;;;-11.02;67.44;99754.06;5021204;28;20046;-78
2021/12/27 00:59:48;;;;;;;5.43;2.08;;;;;;;-11.01;67.32;99753.28;5021165;28;20058;-78
2021/12/27 01:02:19;;;;;;;2.22;1.90;;;;;;;-10.99;67.08;99759.28;5020575;28;20088;-78
2021/12/27 01:04:51;;;;;;;4.55;2.50;;;;;;;-10.91;67.55;99768.19;5021094;28;20054;-78
2021/12/27 01:07:22;;;;;;;9.82;2.83;;;;;;;-10.80;67.16;99757.91;5021146;28;20045;-78
2021/12/27 01:10:05;;;;;;;7.45;3.70;;;;;;;-10.59;67.14;99756.63;5021186;28;20072;-78
2021/12/27 01:12:48;;;;;;;7.72;3.58;;;;;;;-10.36;66.94;99769.75;5021155;28;20074;-78
2021/12/27 01:15:46;;;;;;;10.93;3.05;;;;;;;-10.27;66.51;99760.16;5021076;28;20058;-78
2021/12/27 01:18:17;;;;;;;4.90;2.40;;;;;;;-10.10;65.90;99774.63;5021045;28;20045;-78
2021/12/27 01:20:50;;;;;;;2.70;2.20;;;;;;;-10.10;65.56;99772.09;5020891;28;20053;-78
2021/12/27 01:23:21;;;;;;;15.38;6.20;;;;;;;-10.08;65.39;99768.00;5021095;28;20258;-78
2021/12/27 01:25:51;;;;;;;15.88;8.50;;;;;;;-9.95;65.18;99756.06;5021274;28;20045;-78
2021/12/27 01:28:22;;;;;;;5.50;1.77;;;;;;;-9.87;64.59;99752.31;5021316;28;20105;-78
2021/12/27 01:30:53;;;;;;;3.42;2.20;;;;;;;-9.96;64.50;99736.63;5021269;28;20077;-78
2021/12/27 01:33:25;;;;;;;3.92;1.90;;;;;;;-9.80;64.40;99759.47;5021593;28;20038;-77
2021/12/27 01:36:02;;;;;;;6.10;2.25;;;;;;;-9.76;63.98;99751.25;5023916;28;20046;-76
2021/12/27 01:38:34;;;;;;;3.42;1.80;;;;;;;-9.59;63.97;99750.53;5024138;28;20085;-76
2021/12/27 01:41:07;;;;;;;2.30;2.10;;;;;;;-10.06;63.79;99669.53;5017771;28;20113;-78
2021/12/27 01:43:39;;;;;;;11.05;3.75;;;;;;;-9.38;63.56;99755.91;5012854;28;20053;-77
2021/12/27 01:46:12;;;;;;;8.38;2.30;;;;;;;-9.20;63.06;99755.16;5008163;28;20567;-77
2021/12/27 01:48:45;;;;;;;14.32;6.20;;;;;;;-9.08;62.89;99749.88;5012359;28;20257;-78
2021/12/27 01:51:18;;;;;;;7.95;3.88;;;;;;;-8.87;62.61;99745.94;5014870;28;20167;-78
2021/12/27 01:53:50;;;;;;;8.23;4.22;;;;;;;-9.00;62.10;99713.19;5014145;28;20049;-78
2021/12/27 01:56:22;;;;;;;11.50;2.90;;;;;;;-8.81;61.86;99715.00;5015123;28;20396;-78
2021/12/27 01:58:55;;;;;;;2.53;1.90;;;;;;;-8.55;61.79;99736.63;5016403;28;20077;-78
2021/12/27 02:01:26;;;;;;;6.00;2.33;;;;;;;-8.43;61.11;99723.72;5019709;28;20346;-80
2021/12/27 02:03:58;;;;;;;18.73;8.25;;;;;;;-8.34;60.64;99719.91;5006948;28;20077;-79
2021/12/27 02:06:30;;;;;;;4.40;2.63;;;;;;;-8.32;59.69;99733.53;5010840;28;20129;-79
2021/12/27 02:09:01;;;;;;;2.75;2.22;;;;;;;-8.35;59.39;99713.13;5010161;28;20061;-79
2021/12/27 02:11:34;;;;;;;7.00;2.80;;;;;;;-8.25;59.44;99720.38;5020035;28;20181;-79
2021/12/27 02:14:06;;;;;;;5.68;3.40;;;;;;;-8.21;59.19;99705.31;5021899;28;20048;-79
2021/12/27 02:16:37;;;;;;;6.72;2.70;;;;;;;-8.16;58.93;99719.09;5022268;28;20092;-78
2021/12/27 02:19:08;;;;;;;4.97;2.10;;;;;;;-8.16;58.12;99708.94;5021578;28;20046;-79
2021/12/27 02:21:41;;;;;;;3.45;2.00;;;;;;;-8.26;58.49;99688.25;5022226;28;20381;-79
2021/12/27 02:24:11;;;;;;;3.75;1.65;;;;;;;-8.22;57.63;99703.59;5022511;28;20050;-79
2021/12/27 02:26:43;;;;;;;4.05;2.30;;;;;;;-8.17;57.69;99702.16;5017296;28;20100;-80
2021/12/27 02:29:13;;;;;;;6.88;2.95;;;;;;;-8.05;58.12;99705.28;5022027;28;20385;-80
2021/12/27 02:31:44;;;;;;;6.03;2.10;;;;;;;-7.86;58.42;99685.09;5019883;28;20041;-79
2021/12/27 02:34:15;;;;;;;4.97;1.80;;;;;;;-7.81;56.61;99686.19;5021935;28;20555;-79
2021/12/27 02:36:50;;;;;;;5.63;2.10;;;;;;;-7.84;56.49;99683.50;5021904;28;20068;-79
2021/12/27 02:39:20;;;;;;;3.38;1.85;;;;;;;-7.88;56.34;99671.47;5023852;28;20084;-79
2021/12/27 02:41:51;;;;;;;4.57;1.80;;;;;;;-7.66;57.06;99675.00;5027370;28;20109;-79
2021/12/27 02:44:22;;;;;;;3.80;2.05;;;;;;;-7.68;56.66;99674.06;5026405;28;20054;-78
2021/12/27 02:46:52;;;;;;;4.50;2.08;;;;;;;-7.46;56.75;99671.72;5024386;28;20302;-79
2021/12/27 02:49:23;;;;;;;6.57;1.83;;;;;;;-7.35;55.57;99673.88;5026398;28;20110;-77
2021/12/27 02:51:55;;;;;;;4.43;1.80;;;;;;;-7.49;55.83;99671.56;5033005;28;20073;-78
2021/12/27 02:54:26;;;;;;;6.28;1.95;;;;;;;-7.44;54.88;99670.13;5032773;28;20105;-78
2021/12/27 02:56:57;;;;;;;3.10;1.40;;;;;;;-7.58;54.13;99671.16;5032959;28;20061;-78
2021/12/27 02:59:28;;;;;;;1.95;1.60;;;;;;;-7.48;54.45;99668.25;5022640;28;20058;-80
2021/12/27 03:01:58;;;;;;;2.05;1.20;;;;;;;-7.44;54.51;99670.13;5022557;28;20066;-79
2021/12/27 03:04:35;;;;;;;2.53;1.40;;;;;;;-7.38;53.59;99670.41;5022366;28;20050;-79
2021/12/27 03:07:07;;;;;;;2.08;1.38;;;;;;;-7.66;54.03;99652.16;5021523;28;20046;-79
2021/12/27 03:09:40;;;;;;;8.73;1.83;;;;;;;-7.77;54.76;99668.56;5020060;28;20064;-79
2021/12/27 03:12:13;;;;;;;2.65;1.75;;;;;;;-7.88;54.75;99665.53;5019119;28;20093;-79
2021/12/27 03:14:43;;;;;;;4.07;1.58;;;;;;;-7.86;55.31;99669.88;5020005;28;20053;-79
2021/12/27 03:17:14;;;;;;;4.88;1.85;;;;;;;-7.81;56.15;99678.56;5020579;28;20050;-80
2021/12/27 03:19:45;;;;;;;5.05;1.65;;;;;;;-7.92;55.48;99654.34;5020926;28;20073;-80
2021/12/27 03:22:17;;;;;;;4.00;1.55;;;;;;;-7.81;55.44;99678.56;5023292;28;20038;-79
2021/12/27 03:24:48;;;;;;;5.05;1.30;;;;;;;-7.70;55.50;99680.75;5033743;28;20121;-81
2021/12/27 03:27:19;;;;;;;3.75;1.63;;;;;;;-7.63;55.55;99677.69;5053784;28;20057;-78
2021/12/27 03:32:48;;;;;;;1.95;1.25;;;;;;;-7.40;54.79;99674.53;5042194;28;20559;-80
2021/12/27 03:35:25;;;;;;;3.55;1.67;;;;;;;-7.40;53.97;99666.91;5040700;28;20064;-79
2021/12/27 03:38:00;;;;;;;1.60;1.40;;;;;;;-7.39;54.12;99638.22;5040535;28;20146;-79
2021/12/27 03:40:31;;;;;;;3.60;2.15;;;;;;;-7.01;53.75;99654.28;5038231;28;20080;-79
2021/12/27 03:43:02;;;;;;;5.32;2.30;;;;;;;-6.82;53.84;99662.69;5037484;28;20045;-79
2021/12/27 03:45:34;;;;;;;3.80;2.10;;;;;;;-6.76;52.87;99662.97;5036830;28;20080;-79
2021/12/27 03:48:07;;;;;;;3.95;2.38;;;;;;;-6.80;52.77;99661.09;5040962;28;20052;-79
2021/12/27 03:50:39;;;;;;;2.50;1.70;;;;;;;-6.84;53.37;99654.13;5039643;28;20140;-79
2021/12/27 03:53:11;;;;;;;3.05;1.50;;;;;;;-6.85;53.94;99667.63;5040066;28;20085;-79
2021/12/27 03:55:42;;;;;;;5.57;1.60;;;;;;;-7.00;53.68;99660.22;5036935;28;20053;-79
2021/12/27 03:58:26;;;;;;;2.22;1.50;;;;;;;-7.39;53.72;99617.91;5038314;28;20108;-79
2021/12/27 04:01:14;;;;;;;2.65;1.38;;;;;;;-7.40;54.55;99646.63;5040287;28;20046;-79
2021/12/27 04:03:47;;;;;;;2.80;1.40;;;;;;;-7.34;55.65;99655.31;5038966;28;20059;-79
2021/12/27 04:06:19;;;;;;;2.80;1.33;;;;;;;-7.43;55.46;99661.72;5038431;28;20049;-79
2021/12/27 04:08:52;;;;;;;2.95;1.60;;;;;;;-7.34;56.37;99660.38;5036481;28;20112;-78
2021/12/27 04:11:23;;;;;;;2.05;1.50;;;;;;;-7.35;55.29;99653.59;5038276;28;20052;-79
2021/12/27 04:13:53;;;;;;;4.80;1.52;;;;;;;-7.41;55.43;99649.97;5040146;28;20060;-80
2021/12/27 04:16:24;;;;;;;5.05;1.95;;;;;;;-7.60;55.36;99616.94;5035885;28;20121;-80
2021/12/27 04:18:56;;;;;;;3.83;1.30;;;;;;;-7.45;55.39;99653.16;5033569;28;20060;-80
2021/12/27 04:21:26;;;;;;;2.53;1.45;;;;;;;-7.48;56.00;99652.16;5040114;28;20045;-80
2021/12/27 04:23:59;;;;;;;4.40;1.48;;;;;;;-7.62;55.56;99633.75;5040017;28;20055;-82
2021/12/27 04:26:30;;;;;;;6.35;1.40;;;;;;;-7.59;55.89;99649.13;5039825;28;20333;-81
2021/12/27 04:29:02;;;;;;;5.82;1.45;;;;;;;-7.67;55.42;99646.22;5020625;28;20066;-80
2021/12/27 04:31:33;;;;;;;1.52;1.30;;;;;;;-7.68;55.92;99653.78;5021522;28;20088;-82
2021/12/27 04:34:03;;;;;;;2.70;1.30;;;;;;;-7.68;55.53;99653.78;5037667;28;20076;-83
2021/12/27 04:36:34;;;;;;;1.60;1.27;;;;;;;-7.71;56.02;99649.44;5037938;28;20396;-81
2021/12/27 04:39:08;;;;;;;1.50;1.40;;;;;;;-7.89;56.06;99634.22;5032088;28;20059;-81
2021/12/27 04:41:39;;;;;;;3.38;1.50;;;;;;;-7.79;56.32;99649.88;5038211;28;20361;-80
2021/12/27 04:44:09;;;;;;;1.30;1.20;;;;;;;-7.87;56.92;99663.06;5038026;28;20077;-80
2021/12/27 04:46:41;;;;;;;2.20;1.30;;;;;;;-7.93;57.46;99657.69;5036955;28;20061;-80
2021/12/27 04:49:12;;;;;;;4.55;1.45;;;;;;;-8.01;57.06;99643.81;5038429;28;20203;-80
2021/12/27 04:51:43;;;;;;;3.60;1.60;;;;;;;-7.96;57.10;99657.56;5037226;28;20125;-80
2021/12/27 04:54:15;;;;;;;3.88;1.67;;;;;;;-8.00;56.80;99686.09;5040051;28;20064;-81
2021/12/27 04:56:49;;;;;;;4.20;1.40;;;;;;;-8.29;56.73;99662.72;5039921;28;20092;-80
2021/12/27 04:59:20;;;;;;;3.95;1.58;;;;;;;-8.27;56.87;99686.47;5039657;28;20089;-80
2021/12/27 05:01:51;;;;;;;2.47;1.30;;;;;;;-8.27;57.25;99689.00;5038285;28;20088;-79
2021/12/27 05:04:22;;;;;;;4.80;1.23;;;;;;;-8.33;57.40;99696.34;5039848;28;20057;-80
2021/12/27 05:06:53;;;;;;;1.50;1.40;;;;;;;-8.34;57.86;99699.63;5032488;28;20045;-81
2021/12/27 05:09:25;;;;;;;4.07;1.60;;;;;;;-8.36;58.34;99686.06;5036937;28;20080;-80
2021/12/27 05:11:56;;;;;;;1.35;1.25;;;;;;;-8.39;58.16;99690.94;5040078;28;20111;-80
2021/12/27 05:14:27;;;;;;;3.90;1.50;;;;;;;-8.42;56.97;99690.84;5039485;28;20116;-80
2021/12/27 05:16:58;;;;;;;2.90;1.83;;;;;;;-8.43;57.39;99699.25;5036762;28;20860;-80
2021/12/27 05:19:31;;;;;;;2.90;1.52;;;;;;;-8.44;57.74;99715.22;5038153;28;20057;-80
2021/12/27 05:22:02;;;;;;;1.92;1.50;;;;;;;-8.64;57.85;99693.09;5037511;28;20114;-81
2021/12/27 05:24:34;;;;;;;1.80;1.42;;;;;;;-8.71;58.04;99696.97;5038077;28;20280;-81
2021/12/27 05:27:06;;;;;;;1.52;1.40;;;;;;;-8.65;58.00;99726.81;5038756;28;20121;-81
2021/12/27 05:29:37;;;;;;;2.67;1.60;;;;;;;-8.69;58.42;99726.63;5038295;28;20050;-81
2021/12/27 05:32:10;;;;;;;5.93;1.38;;;;;;;-8.80;58.58;99717.63;5041132;28;20064;-81
2021/12/27 05:34:41;;;;;;;1.58;1.40;;;;;;;-8.68;58.97;99733.47;5043106;28;20041;-81
2021/12/27 05:37:12;;;;;;;1.75;1.48;;;;;;;-8.69;58.78;99741.81;5043612;28;20057;-80
2021/12/27 05:39:45;;;;;;;3.22;1.42;;;;;;;-8.70;59.47;99744.31;5043145;28;20081;-80
2021/12/27 05:42:16;;;;;;;2.80;1.40;;;;;;;-8.79;58.49;99749.75;5042851;28;20045;-80
2021/12/27 05:44:47;;;;;;;1.83;1.40;;;;;;;-8.91;58.59;99754.16;5042738;28;20059;-80
2021/12/27 05:47:18;;;;;;;7.30;1.73;;;;;;;-9.01;59.43;99751.94;5043321;28;20080;-80
2021/12/27 05:49:49;;;;;;;3.55;1.50;;;;;;;-9.03;59.57;99763.66;5043202;28;20402;-80
2021/12/27 05:52:20;;;;;;;2.17;1.50;;;;;;;-9.27;59.54;99732.84;5042447;28;20059;-80
2021/12/27 05:54:52;;;;;;;2.03;1.77;;;;;;;-9.20;59.71;99745.91;5042631;28;20050;-80
2021/12/27 05:57:23;;;;;;;4.82;1.70;;;;;;;-9.00;59.32;99773.94;5042970;28;20396;-79
2021/12/27 05:59:54;;;;;;;1.65;1.45;;;;;;;-9.03;58.93;99769.59;5039970;28;20053;-80
2021/12/27 06:02:25;;;;;;;4.47;1.70;;;;;;;-9.08;59.29;99775.19;5041743;28;20073;-80
2021/12/27 06:04:56;;;;;;;1.17;1.17;;;;;;;-9.28;59.10;99767.41;5039122;28;20356;-80
2021/12/27 06:07:26;;;;;;;4.53;1.45;;;;;;;-9.25;59.58;99772.63;5040815;28;20117;-77
2021/12/27 06:09:59;;;;;;;2.20;1.38;;;;;;;-9.30;60.29;99774.03;5041036;28;20064;-75
2021/12/27 06:12:30;;;;;;;2.58;1.55;;;;;;;-9.35;59.87;99770.38;5040532;28;20097;-77
2021/12/27 06:15:00;;;;;;;2.50;1.50;;;;;;;-9.42;60.28;99778.41;5042080;28;20072;-77
2021/12/27 06:17:33;;;;;;;1.92;1.38;;;;;;;-9.56;60.10;99765.91;5041711;28;20045;-77
2021/12/27 06:20:06;;;;;;;1.52;1.42;;;;;;;-9.52;60.23;99781.22;5042880;28;20053;-77
2021/12/27 06:22:39;;;;;;;4.70;1.48;;;;;;;-9.58;60.23;99781.78;5042238;28;20113;-78
2021/12/27 06:25:11;;;;;;;2.42;1.52;;;;;;;-9.63;60.69;99778.97;5041466;28;20412;-75
2021/12/27 06:27:43;;;;;;;3.28;1.60;;;;;;;-9.72;60.42;99782.66;5034561;28;20109;-76
2021/12/27 06:30:16;;;;;;;2.75;1.50;;;;;;;-9.69;61.05;99788.72;5041617;28;20053;-77
2021/12/27 06:32:48;;;;;;;2.85;1.65;;;;;;;-9.71;60.75;99795.34;5038387;28;20441;-76
2021/12/27 06:35:19;;;;;;;1.60;1.50;;;;;;;-9.79;61.25;99786.47;5039904;28;20144;-76
2021/12/27 06:37:50;;;;;;;4.35;1.70;;;;;;;-9.83;60.98;99794.69;5041717;28;20331;-76
2021/12/27 06:40:22;;;;;;;2.80;1.55;;;;;;;-9.90;61.05;99792.59;5041416;28;20112;-76
2021/12/27 06:42:53;;;;;;;2.92;1.83;;;;;;;-10.01;61.29;99794.50;5030663;28;20068;-76
2021/12/27 06:45:24;;;;;;;5.80;2.25;;;;;;;-9.98;61.46;99805.66;5040830;28;20085;-76
2021/12/27 06:47:55;;;;;;;12.30;3.78;;;;;;;-10.03;61.70;99796.94;5039847;28;20116;-76
2021/12/27 06:50:26;;;;;;;14.48;3.92;;;;;;;-10.06;61.72;99817.00;5039236;28;20057;-77
2021/12/27 06:52:56;;;;;;;15.93;4.50;;;;;;;-10.11;61.87;99818.34;5040542;28;20059;-77
2021/12/27 06:55:29;;;;;;;9.73;3.50;;;;;;;-10.25;62.20;99809.13;5040410;28;20367;-77
2021/12/27 06:58:00;;;;;;;12.23;4.25;;;;;;;-10.37;62.25;99793.28;5041026;28;20042;-77
2021/12/27 07:00:31;;;;;;;3.92;2.53;;;;;;;-10.17;62.35;99818.00;5041477;28;20349;-77
2021/12/27 07:03:01;;;;;;;7.40;3.13;;;;;;;-10.24;62.13;99816.75;5041397;28;20099;-77
2021/12/27 07:05:32;;;;;;;12.77;5.32;;;;;;;-10.23;61.97;99820.19;5041637;28;20050;-77
2021/12/27 07:08:03;;;;;;;6.20;3.40;;;;;;;-10.37;62.04;99803.38;5028610;28;20079;-77
2021/12/27 07:10:35;;;;;;;9.27;4.10;;;;;;;-10.33;62.28;99822.97;5041407;28;20056;-77
2021/12/27 07:13:06;;;;;;;3.65;2.63;;;;;;;-10.24;62.29;99836.09;5040354;28;20045;-76
2021/12/27 07:15:41;;;;;;;1.75;1.63;;;;;;;-10.25;62.40;99842.81;5041916;28;20052;-76
2021/12/27 07:18:12;;;;;;;3.13;1.70;;;;;;;-10.39;62.24;99812.50;5041369;28;20100;-77
2021/12/27 07:20:43;;;;;;;4.10;2.05;;;;;;;-10.21;62.26;99851.44;5041539;28;20080;-77
2021/12/27 07:23:14;;;;;;;33.72;9.57;;;;;;;-10.23;62.39;99847.97;5041058;28;20060;-77
2021/12/27 07:25:47;;;;;;;54.03;16.00;;;;;;;-10.24;62.48;99852.13;5039629;28;20140;-77
2021/12/27 07:28:18;;;;;;;69.78;20.80;;;;;;;-10.26;62.76;99848.66;5036010;28;20048;-77
2021/12/27 07:30:48;;;;;;;72.95;19.40;;;;;;;-10.28;62.43;99854.41;5038380;28;20041;-77
2021/12/27 07:33:19;;;;;;;29.45;8.75;;;;;;;-10.34;62.94;99859.13;5040011;28;20381;-76
2021/12/27 07:35:50;;;;;;;13.15;3.92;;;;;;;-10.37;63.30;99858.94;5039848;28;20410;-77
2021/12/27 07:38:21;;;;;;;30.35;8.18;;;;;;;-10.43;63.30;99867.91;5039755;28;20148;-76
2021/12/27 07:40:54;;;;;;;23.63;5.82;;;;;;;-10.44;63.48;99863.59;5035800;28;20041;-76
2021/12/27 07:43:24;;;;;;;13.93;4.70;;;;;;;-10.54;63.58;99846.16;5040809;28;20109;-77
2021/12/27 07:45:55;;;;;;;10.05;3.88;;;;;;;-10.56;63.68;99857.81;5040880;28;20049;-78
2021/12/27 07:48:26;;;;;;;11.13;3.38;;;;;;;-10.56;63.67;99872.97;5035259;28;20280;-78
2021/12/27 07:50:57;;;;;;;23.63;6.43;;;;;;;-10.59;63.78;99872.78;5038231;28;20357;-78
2021/12/27 07:53:27;;;;;;;30.85;9.73;;;;;;;-10.68;64.07;99875.63;5031352;28;20062;-78
2021/12/27 07:56:00;;;;;;;33.63;8.65;;;;;;;-10.74;63.72;99877.75;5025180;28;20056;-79
2021/12/27 07:58:30;;;;;;;129.20;32.83;;;;;;;-10.87;63.72;99870.22;5040558;28;20363;-79
2021/12/27 08:01:01;;;;;;;132.90;33.25;;;;;;;-10.80;64.02;99886.63;5039801;28;20617;-78
2021/12/27 08:03:32;;;;;;;94.95;28.35;;;;;;;-10.80;63.91;99886.63;5039382;28;20092;-79
2021/12/27 08:06:03;;;;;;;94.47;27.23;;;;;;;-10.80;63.96;99891.69;5039887;28;20424;-78
2021/12/27 08:08:36;;;;;;;50.75;18.35;;;;;;;-10.88;64.03;99894.59;5042634;28;20051;-79
2021/12/27 08:11:08;;;;;;;32.92;12.15;;;;;;;-10.94;64.01;99889.13;5039230;28;20114;-78
2021/12/27 08:13:42;;;;;;;43.97;13.88;;;;;;;-10.97;64.12;99899.06;5035066;28;20056;-77
2021/12/27 08:16:13;;;;;;;54.22;17.17;;;;;;;-10.96;64.17;99899.91;5038373;28;20048;-78
2021/12/27 08:18:46;;;;;;;41.15;12.70;;;;;;;-11.02;64.60;99900.41;5038117;28;20042;-77
2021/12/27 08:21:17;;;;;;;16.67;6.28;;;;;;;-11.10;64.95;99904.09;5035376;28;20116;-78
2021/12/27 08:23:48;;;;;;;10.63;4.05;;;;;;;-11.14;65.66;99899.63;5038981;28;20060;-77
2021/12/27 08:26:21;;;;;;;12.98;4.70;;;;;;;-11.24;65.92;99907.38;5033806;28;20050;-78
2021/12/27 08:28:53;;;;;;;10.95;4.38;;;;;;;-11.29;66.14;99910.47;5036928;28;20060;-77
2021/12/27 08:31:24;;;;;;;13.65;6.65;;;;;;;-11.37;66.44;99911.66;5039373;28;20044;-78
2021/12/27 08:33:55;;;;;;;14.82;6.68;;;;;;;-11.49;66.94;99910.84;5038202;28;20336;-78
2021/12/27 08:36:26;;;;;;;10.25;5.25;;;;;;;-11.72;67.64;99890.06;5037614;28;20076;-78
2021/12/27 08:39:15;;;;;;;6.32;3.13;;;;;;;-11.64;67.93;99919.94;5038096;28;20135;-78
2021/12/27 08:41:48;;;;;;;3.58;2.90;;;;;;;-11.70;68.09;99914.47;5038492;28;20226;-78
2021/12/27 08:44:19;;;;;;;7.35;3.17;;;;;;;-11.70;68.52;99919.50;5033333;28;20045;-78
2021/12/27 08:46:50;;;;;;;7.22;2.85;;;;;;;-11.75;68.73;99917.59;5037999;28;20112;-78
2021/12/27 08:49:21;;;;;;;8.90;3.25;;;;;;;-11.87;68.58;99916.78;5035378;28;20066;-77
2021/12/27 08:51:51;;;;;;;24.02;7.20;;;;;;;-11.91;69.27;99908.94;5037091;28;20041;-77
2021/12/27 08:54:22;;;;;;;36.92;12.10;;;;;;;-11.80;69.27;99918.94;5034622;28;20053;-76
2021/12/27 08:56:54;;;;;;;58.65;18.10;;;;;;;-11.84;69.38;99918.63;5033931;28;20406;-76
2021/12/27 08:59:25;;;;;;;59.72;17.90;;;;;;;-11.98;69.70;99910.16;5036128;28;20994;-76
2021/12/27 09:01:56;;;;;;;80.13;21.67;;;;;;;-12.03;69.96;99921.56;5036777;28;20234;-77
2021/12/27 09:04:27;;;;;;;70.68;21.95;;;;;;;-12.14;70.28;99922.50;5036203;28;20061;-76
2021/12/27 09:06:58;;;;;;;73.65;21.92;;;;;;;-12.33;70.26;99918.72;5043340;28;20337;-76
2021/12/27 09:09:28;;;;;;;163.15;39.30;;;;;;;-12.52;70.42;99908.19;5043540;28;20409;-77
2021/12/27 09:12:01;;;;;;;341.00;69.55;;;;;;;-12.55;70.82;99920.53;5041865;28;20140;-78
2021/12/27 09:14:32;;;;;;;557.38;105.15;;;;;;;-12.75;70.50;99936.75;5043657;28;20105;-78
2021/12/27 09:17:03;;;;;;;158.77;35.03;;;;;;;-12.97;71.30;99934.38;5045701;28;20048;-79
2021/12/27 09:19:33;;;;;;;98.05;21.92;;;;;;;-12.90;71.83;99934.03;5060700;28;20038;-80
2021/12/27 09:22:04;;;;;;;76.72;15.77;;;;;;;-13.12;71.85;99945.09;5059322;28;20047;-80
2021/12/27 09:24:35;;;;;;;78.15;19.80;;;;;;;-13.30;72.25;99928.72;5056619;28;20072;-82
2021/12/27 09:27:08;;;;;;;22.33;9.18;;;;;;;-13.34;71.93;99946.84;5043666;28;20034;-81
2021/12/27 09:29:41;;;;;;;11.60;5.82;;;;;;;-13.48;72.56;99949.25;5061274;28;20088;-80
2021/12/27 09:32:12;;;;;;;24.05;9.60;;;;;;;-13.56;73.01;99935.22;5058764;28;20117;-78
2021/12/27 09:34:43;;;;;;;9.15;4.97;;;;;;;-13.66;73.73;99959.56;5059298;28;20034;-82
2021/12/27 09:37:13;;;;;;;10.57;4.32;;;;;;;-13.85;74.05;99959.81;5048225;28;20045;-80
2021/12/27 09:39:44;;;;;;;10.13;5.10;;;;;;;-14.03;74.58;99969.34;5048247;28;20126;-82
2021/12/27 09:42:17;;;;;;;22.70;8.10;;;;;;;-14.12;74.86;99977.94;5047571;28;20091;-83
2021/12/27 09:44:47;;;;;;;30.27;9.88;;;;;;;-14.17;75.01;99965.81;5047283;28;20068;-80
2021/12/27 09:47:18;;;;;;;30.67;11.48;;;;;;;-14.34;74.82;99962.88;5045246;28;20045;-81
2021/12/27 09:50:06;;;;;;;24.10;8.70;;;;;;;-14.39;76.28;99979.22;5045033;28;20098;-79
2021/12/27 09:52:38;;;;;;;26.33;9.38;;;;;;;-14.60;75.88;99927.41;5044595;28;20057;-79
2021/12/27 09:55:11;;;;;;;27.58;8.85;;;;;;;-14.42;75.81;99971.47;5047099;28;20041;-77
2021/12/27 10:01:39;;;;;;;33.30;9.80;;;;;;;-14.65;75.38;99934.59;4975753;29;20294;-76
2021/12/27 10:04:11;;;;;;;29.45;10.85;;;;;;;-14.39;75.40;99964.16;4963165;29;20075;-78
2021/12/27 10:06:43;;;;;;;38.80;13.55;;;;;;;-14.27;75.42;99974.28;4963587;29;20051;-78
2021/12/27 10:09:14;;;;;;;21.00;7.95;;;;;;;-14.10;75.52;99973.06;4962152;29;20043;-78
2021/12/27 10:11:47;;;;;;;20.98;8.77;;;;;;;-14.28;75.11;99924.81;4960624;29;20061;-78
2021/12/27 10:14:21;;;;;;;35.35;12.57;;;;;;;-13.89;74.65;99977.94;4962489;29;20082;-78
2021/12/27 10:16:55;;;;;;;37.58;12.73;;;;;;;-13.75;74.19;99992.41;4961179;28;20082;-78
2021/12/27 10:19:26;;;;;;;21.50;7.25;;;;;;;-13.71;73.96;99979.31;4961728;29;20478;-78
2021/12/27 10:21:57;;;;;;;17.63;7.68;;;;;;;-13.75;73.74;99982.34;4957450;29;20083;-78
2021/12/27 10:24:32;;;;;;;14.82;6.80;;;;;;;-13.85;73.62;99984.94;4960720;29;20106;-80
2021/12/27 10:27:03;;;;;;;9.35;4.78;;;;;;;-13.94;73.34;99980.97;4961782;29;20107;-78
2021/12/27 10:29:36;;;;;;;7.53;4.20;;;;;;;-13.97;73.55;99985.78;4961667;29;20066;-79
2021/12/27 10:32:10;;;;;;;5.15;3.97;;;;;;;-14.41;73.68;99925.53;4963461;29;20050;-79
2021/12/27 10:34:44;;;;;;;5.00;3.17;;;;;;;-14.01;73.94;99971.22;4963035;29;20051;-78
2021/12/27 10:37:19;;;;;;;4.88;2.85;;;;;;;-14.02;73.85;99966.97;4997671;28;20045;-78
2021/12/27 10:40:01;;;;;;;2.80;2.60;;;;;;;-13.91;74.03;99986.22;5046050;28;20049;-76
2021/12/27 10:42:33;;;;;;;4.03;2.90;;;;;;;-14.13;73.64;99947.69;5046194;28;20050;-78
2021/12/27 10:45:07;;;;;;;4.82;3.10;;;;;;;-14.07;73.61;99973.28;5045871;28;20052;-78
2021/12/27 10:47:45;;;;;;;6.30;2.60;;;;;;;-13.99;73.72;99977.25;5041905;28;20081;-78
2021/12/27 10:50:18;;;;;;;3.78;3.30;;;;;;;-14.22;73.69;99947.88;5048168;28;20108;-81
2021/12/27 10:52:55;;;;;;;4.15;3.63;;;;;;;-14.02;73.35;99992.09;5046071;28;20068;-80
2021/12/27 10:55:31;;;;;;;7.78;4.38;;;;;;;-14.05;73.44;99996.88;5049691;28;20054;-77
2021/12/27 10:58:13;;;;;;;7.95;4.35;;;;;;;-14.09;73.35;99987.34;5042564;28;20048;-77
2021/12/27 11:00:46;;;;;;;11.65;5.00;;;;;;;-14.21;73.05;99988.91;5040145;28;20042;-78
2021/12/27 11:03:41;;;;;;;11.07;4.97;;;;;;;-14.25;73.46;99991.94;5038598;28;20073;-78
2021/12/27 11:06:16;;;;;;;12.82;4.25;;;;;;;-14.25;73.22;100002.88;5037299;28;20061;-78
2021/12/27 11:08:47;;;;;;;8.73;4.10;;;;;;;-14.25;73.20;99991.94;5037660;28;20088;-77
2021/12/27 11:11:18;;;;;;;6.72;3.50;;;;;;;-14.56;73.01;99962.03;5040117;28;20487;-78
2021/12/27 11:13:51;;;;;;;3.47;3.17;;;;;;;-14.39;73.00;99994.28;5038514;28;20056;-77
2021/12/27 11:16:22;;;;;;;11.75;3.38;;;;;;;-14.35;73.13;99997.88;5041708;28;20306;-77
2021/12/27 11:18:55;;;;;;;6.88;3.90;;;;;;;-14.40;72.71;100007.59;5035625;28;20249;-76
2021/12/27 11:21:35;;;;;;;3.05;2.70;;;;;;;-15.13;72.63;99924.09;5039112;28;20048;-77
2021/12/27 11:24:07;;;;;;;2.65;2.13;;;;;;;-14.86;72.69;99983.94;5039862;28;20069;-77
2021/12/27 11:26:47;;;;;;;3.17;2.70;;;;;;;-14.78;72.63;100013.00;5041391;28;20276;-77
2021/12/27 11:29:21;;;;;;;4.88;2.97;;;;;;;-14.93;72.87;99986.72;5042743;28;20057;-78
2021/12/27 11:31:55;;;;;;;5.95;4.03;;;;;;;-14.79;72.59;100031.31;5043034;28;20100;-77
2021/12/27 11:34:55;;;;;;;4.40;2.90;;;;;;;-15.10;72.32;100017.06;5040851;28;20383;-78
2021/12/27 11:37:38;;;;;;;4.47;3.10;;;;;;;-15.40;72.58;100013.84;5041198;28;20065;-77
2021/12/27 11:40:12;;;;;;;41.35;15.68;;;;;;;-15.32;73.57;100030.41;5040343;28;20057;-76
2021/12/27 11:43:05;;;;;;;23.08;9.70;;;;;;;-15.43;73.56;100038.66;5036457;28;20348;-77
2021/12/27 11:45:47;;;;;;;17.55;6.93;;;;;;;-15.54;72.90;100041.91;5032821;28;20204;-76
2021/12/27 11:48:27;;;;;;;15.32;6.10;;;;;;;-15.97;72.55;99998.28;5036866;28;20059;-76
2021/12/27 11:51:12;;;;;;;9.02;4.20;;;;;;;-15.90;73.14;100040.63;5037751;28;20172;-75
2021/12/27 11:53:53;;;;;;;11.98;4.70;;;;;;;-16.09;73.09;100058.22;5038691;28;20100;-77
2021/12/27 11:56:44;;;;;;;9.63;4.50;;;;;;;-16.22;73.43;100056.31;5022158;28;20368;-77